sensor_id;sensor_type;location;lat;lon;timestamp;pressure;altitude;pressure_sealevel;temperature;humidity
55860;BME280;41780;52.148;4.408;2022-07-01T00:01:10;100707.69;;;15.03;100.00
55860;BME280;41780;52.148;4.408;2022-07-01T00:03:35;100709.16;;;15.01;100.00
55860;BME280;41780;52.148;4.408;2022-07-01T00:06:00;100713.13;;;15.09;100.00
55860;BME280;41780;52.148;4.408;2022-07-01T00:08:26;100708.56;;;15.13;100.00
55860;BME280;41780;52.148;4.408;2022-07-01T00:10:51;100714.53;;;15.06;100.00
55860;BME280;41780;52.148;4.408;2022-07-01T00:13:17;100717.00;;;15.07;100.00
55860;BME280;41780;52.148;4.408;2022-07-01T00:15:42;100727.34;;;15.02;100.00
55860;BME280;41780;52.148;4.408;2022-07-01T00:18:07;100740.91;;;14.89;100.00
55860;BME280;41780;52.148;4.408;2022-07-01T00:20:33;100748.16;;;14.85;100.00
55860;BME280;41780;52.148;4.408;2022-07-01T00:23:01;100736.63;;;14.83;100.00
55860;BME280;41780;52.148;4.408;2022-07-01T00:25:27;100729.69;;;14.86;100.00
55860;BME280;41780;52.148;4.408;2022-07-01T00:27:52;100734.72;;;14.84;100.00
55860;BME280;41780;52.148;4.408;2022-07-01T00:30:18;100734.59;;;14.89;100.00
55860;BME280;41780;52.148;4.408;2022-07-01T00:32:43;100745.19;;;14.96;100.00
55860;BME280;41780;52.148;4.408;2022-07-01T00:35:09;100738.50;;;14.97;100.00
55860;BME280;41780;52.148;4.408;2022-07-01T00:37:34;100746.38;;;14.81;100.00
55860;BME280;41780;52.148;4.408;2022-07-01T00:40:01;100753.00;;;14.80;100.00
55860;BME280;41780;52.148;4.408;2022-07-01T00:42:28;100762.31;;;14.84;100.00
55860;BME280;41780;52.148;4.408;2022-07-01T00:44:53;100757.59;;;14.84;100.00
55860;BME280;41780;52.148;4.408;2022-07-01T00:47:19;100752.81;;;14.76;100.00
55860;BME280;41780;52.148;4.408;2022-07-01T00:49:44;100758.16;;;14.73;100.00
55860;BME280;41780;52.148;4.408;2022-07-01T00:52:10;100759.78;;;14.74;100.00
55860;BME280;41780;52.148;4.408;2022-07-01T00:54:37;100764.00;;;14.71;100.00
55860;BME280;41780;52.148;4.408;2022-07-01T00:57:10;100757.75;;;14.65;100.00
55860;BME280;41780;52.148;4.408;2022-07-01T00:59:39;100757.28;;;14.49;100.00
55860;BME280;41780;52.148;4.408;2022-07-01T01:02:07;100740.53;;;14.60;100.00
55860;BME280;41780;52.148;4.408;2022-07-01T01:04:33;100736.94;;;14.59;100.00
55860;BME280;41780;52.148;4.408;2022-07-01T01:07:01;100740.53;;;14.60;100.00
55860;BME280;41780;52.148;4.408;2022-07-01T01:09:28;100740.81;;;14.58;100.00
55860;BME280;41780;52.148;4.408;2022-07-01T01:11:54;100740.00;;;14.58;100.00
55860;BME280;41780;52.148;4.408;2022-07-01T01:14:19;100739.47;;;14.56;100.00
55860;BME280;41780;52.148;4.408;2022-07-01T01:16:46;100743.16;;;14.51;100.00
55860;BME280;41780;52.148;4.408;2022-07-01T01:19:11;100745.09;;;14.50;100.00
55860;BME280;41780;52.148;4.408;2022-07-01T01:21:41;100745.41;;;14.49;100.00
55860;BME280;41780;52.148;4.408;2022-07-01T01:24:08;100747.69;;;14.47;100.00
55860;BME280;41780;52.148;4.408;2022-07-01T01:26:34;100753.06;;;14.52;100.00
55860;BME280;41780;52.148;4.408;2022-07-01T01:29:00;100757.47;;;14.53;100.00
55860;BME280;41780;52.148;4.408;2022-07-01T01:31:31;100762.28;;;14.47;100.00
55860;BME280;41780;52.148;4.408;2022-07-01T01:34:01;100759.50;;;14.47;100.00
55860;BME280;41780;52.148;4.408;2022-07-01T01:36:27;100760.88;;;14.36;100.00
55860;BME280;41780;52.148;4.408;2022-07-01T01:38:53;100760.38;;;14.34;100.00
55860;BME280;41780;52.148;4.408;2022-07-01T01:41:22;100754.63;;;14.44;100.00
55860;BME280;41780;52.148;4.408;2022-07-01T01:43:48;100762.38;;;14.42;100.00
55860;BME280;41780;52.148;4.408;2022-07-01T01:46:14;100764.34;;;14.42;100.00
55860;BME280;41780;52.148;4.408;2022-07-01T01:48:39;100774.88;;;14.40;100.00
55860;BME280;41780;52.148;4.408;2022-07-01T01:51:04;100782.63;;;14.38;100.00
55860;BME280;41780;52.148;4.408;2022-07-01T01:53:30;100785.56;;;14.41;100.00
55860;BME280;41780;52.148;4.408;2022-07-01T01:55:55;100790.28;;;14.41;100.00
55860;BME280;41780;52.148;4.408;2022-07-01T01:58:21;100802.47;;;14.40;100.00
55860;BME280;41780;52.148;4.408;2022-07-01T02:00:46;100800.50;;;14.40;100.00
55860;BME280;41780;52.148;4.408;2022-07-01T02:03:12;100806.84;;;14.41;100.00
55860;BME280;41780;52.148;4.408;2022-07-01T02:05:38;100812.66;;;14.39;100.00
55860;BME280;41780;52.148;4.408;2022-07-01T02:08:04;100804.50;;;14.34;100.00
55860;BME280;41780;52.148;4.408;2022-07-01T02:10:29;100801.22;;;14.32;100.00
55860;BME280;41780;52.148;4.408;2022-07-01T02:12:55;100799.16;;;14.38;100.00
55860;BME280;41780;52.148;4.408;2022-07-01T02:15:20;100787.53;;;14.41;100.00
55860;BME280;41780;52.148;4.408;2022-07-01T02:17:45;100791.44;;;14.40;100.00
55860;BME280;41780;52.148;4.408;2022-07-01T02:20:14;100801.31;;;14.41;100.00
55860;BME280;41780;52.148;4.408;2022-07-01T02:22:41;100800.81;;;14.39;100.00
55860;BME280;41780;52.148;4.408;2022-07-01T02:25:08;100808.28;;;14.38;100.00
55860;BME280;41780;52.148;4.408;2022-07-01T02:27:33;100820.13;;;14.39;100.00
55860;BME280;41780;52.148;4.408;2022-07-01T02:29:59;100827.91;;;14.37;100.00
55860;BME280;41780;52.148;4.408;2022-07-01T02:32:24;100826.13;;;14.41;100.00
55860;BME280;41780;52.148;4.408;2022-07-01T02:34:49;100825.13;;;14.37;100.00
55860;BME280;41780;52.148;4.408;2022-07-01T02:37:16;100832.56;;;14.36;100.00
55860;BME280;41780;52.148;4.408;2022-07-01T02:39:42;100829.94;;;14.31;100.00
55860;BME280;41780;52.148;4.408;2022-07-01T02:42:07;100836.16;;;14.37;100.00
55860;BME280;41780;52.148;4.408;2022-07-01T02:44:48;100838.41;;;14.34;100.00
55860;BME280;41780;52.148;4.408;2022-07-01T02:47:14;100834.91;;;14.43;100.00
55860;BME280;41780;52.148;4.408;2022-07-01T02:49:40;100845.13;;;14.42;100.00
55860;BME280;41780;52.148;4.408;2022-07-01T02:52:06;100845.66;;;14.30;100.00
55860;BME280;41780;52.148;4.408;2022-07-01T02:54:32;100848.44;;;14.30;100.00
55860;BME280;41780;52.148;4.408;2022-07-01T02:56:57;100841.16;;;14.34;100.00
55860;BME280;41780;52.148;4.408;2022-07-01T02:59:23;100839.63;;;14.42;100.00
55860;BME280;41780;52.148;4.408;2022-07-01T03:01:48;100835.34;;;14.36;100.00
55860;BME280;41780;52.148;4.408;2022-07-01T03:04:17;100842.91;;;14.30;100.00
55860;BME280;41780;52.148;4.408;2022-07-01T03:06:44;100847.81;;;14.33;100.00
55860;BME280;41780;52.148;4.408;2022-07-01T03:09:10;100839.72;;;14.37;100.00
55860;BME280;41780;52.148;4.408;2022-07-01T03:11:39;100846.78;;;14.43;100.00
55860;BME280;41780;52.148;4.408;2022-07-01T03:14:04;100846.66;;;14.34;100.00
55860;BME280;41780;52.148;4.408;2022-07-01T03:16:31;100848.81;;;14.38;100.00
55860;BME280;41780;52.148;4.408;2022-07-01T03:18:57;100853.72;;;14.41;100.00
55860;BME280;41780;52.148;4.408;2022-07-01T03:21:23;100864.75;;;14.41;100.00
55860;BME280;41780;52.148;4.408;2022-07-01T03:23:49;100851.88;;;14.36;100.00
55860;BME280;41780;52.148;4.408;2022-07-01T03:26:14;100855.97;;;14.39;100.00
55860;BME280;41780;52.148;4.408;2022-07-01T03:28:40;100863.22;;;14.34;100.00
55860;BME280;41780;52.148;4.408;2022-07-01T03:31:05;100862.50;;;14.29;100.00
55860;BME280;41780;52.148;4.408;2022-07-01T03:33:31;100867.53;;;14.27;100.00
55860;BME280;41780;52.148;4.408;2022-07-01T03:35:56;100869.03;;;14.33;100.00
55860;BME280;41780;52.148;4.408;2022-07-01T03:38:21;100869.03;;;14.33;100.00
55860;BME280;41780;52.148;4.408;2022-07-01T03:40:47;100873.75;;;14.32;100.00
55860;BME280;41780;52.148;4.408;2022-07-01T03:43:12;100883.34;;;14.35;100.00
55860;BME280;41780;52.148;4.408;2022-07-01T03:45:38;100880.91;;;14.33;100.00
55860;BME280;41780;52.148;4.408;2022-07-01T03:48:05;100899.72;;;14.31;100.00
55860;BME280;41780;52.148;4.408;2022-07-01T03:50:30;100897.25;;;14.30;100.00
55860;BME280;41780;52.148;4.408;2022-07-01T03:52:55;100908.06;;;14.26;100.00
55860;BME280;41780;52.148;4.408;2022-07-01T03:55:40;100904.69;;;14.29;100.00
55860;BME280;41780;52.148;4.408;2022-07-01T03:58:06;100908.69;;;14.37;100.00
55860;BME280;41780;52.148;4.408;2022-07-01T04:00:36;100910.84;;;14.40;100.00
55860;BME280;41780;52.148;4.408;2022-07-01T04:03:02;100910.72;;;14.45;100.00
55860;BME280;41780;52.148;4.408;2022-07-01T04:05:28;100924.53;;;14.45;100.00
55860;BME280;41780;52.148;4.408;2022-07-01T04:07:53;100928.50;;;14.39;100.00
55860;BME280;41780;52.148;4.408;2022-07-01T04:10:19;100931.06;;;14.49;100.00
55860;BME280;41780;52.148;4.408;2022-07-01T04:12:44;100924.09;;;14.52;100.00
55860;BME280;41780;52.148;4.408;2022-07-01T04:15:10;100926.56;;;14.53;100.00
55860;BME280;41780;52.148;4.408;2022-07-01T04:17:37;100933.13;;;14.58;100.00
55860;BME280;41780;52.148;4.408;2022-07-01T04:20:03;100936.38;;;14.74;100.00
55860;BME280;41780;52.148;4.408;2022-07-01T04:22:29;100947.94;;;14.89;100.00
55860;BME280;41780;52.148;4.408;2022-07-01T04:25:04;100956.91;;;14.95;100.00
55860;BME280;41780;52.148;4.408;2022-07-01T04:27:30;100969.72;;;14.63;100.00
55860;BME280;41780;52.148;4.408;2022-07-01T04:29:56;100964.72;;;14.79;100.00
55860;BME280;41780;52.148;4.408;2022-07-01T04:32:24;100963.78;;;14.84;100.00
55860;BME280;41780;52.148;4.408;2022-07-01T04:34:50;100964.91;;;14.83;100.00
55860;BME280;41780;52.148;4.408;2022-07-01T04:37:15;100968.91;;;14.77;100.00
55860;BME280;41780;52.148;4.408;2022-07-01T04:39:41;100975.22;;;14.77;100.00
55860;BME280;41780;52.148;4.408;2022-07-01T04:42:06;100981.28;;;14.79;100.00
55860;BME280;41780;52.148;4.408;2022-07-01T04:44:34;100982.88;;;14.80;100.00
55860;BME280;41780;52.148;4.408;2022-07-01T04:47:00;100979.22;;;14.85;100.00
55860;BME280;41780;52.148;4.408;2022-07-01T04:49:27;100985.97;;;14.79;100.00
55860;BME280;41780;52.148;4.408;2022-07-01T04:51:53;100992.50;;;14.83;100.00
55860;BME280;41780;52.148;4.408;2022-07-01T04:54:19;100995.47;;;14.86;100.00
55860;BME280;41780;52.148;4.408;2022-07-01T04:56:45;100989.94;;;15.00;100.00
55860;BME280;41780;52.148;4.408;2022-07-01T04:59:12;100979.28;;;14.94;100.00
55860;BME280;41780;52.148;4.408;2022-07-01T05:01:40;100990.56;;;14.97;100.00
55860;BME280;41780;52.148;4.408;2022-07-01T05:04:06;100991.69;;;14.96;100.00
55860;BME280;41780;52.148;4.408;2022-07-01T05:06:32;101001.06;;;14.95;100.00
55860;BME280;41780;52.148;4.408;2022-07-01T05:08:59;101005.78;;;15.09;100.00
55860;BME280;41780;52.148;4.408;2022-07-01T05:11:24;101017.22;;;15.16;100.00
55860;BME280;41780;52.148;4.408;2022-07-01T05:13:50;101016.19;;;15.25;100.00
55860;BME280;41780;52.148;4.408;2022-07-01T05:16:15;101028.03;;;15.26;100.00
55860;BME280;41780;52.148;4.408;2022-07-01T05:18:40;101029.69;;;15.27;100.00
55860;BME280;41780;52.148;4.408;2022-07-01T05:21:24;101035.22;;;15.27;100.00
55860;BME280;41780;52.148;4.408;2022-07-01T05:24:08;101040.97;;;15.17;100.00
55860;BME280;41780;52.148;4.408;2022-07-01T05:26:34;101045.88;;;15.06;100.00
55860;BME280;41780;52.148;4.408;2022-07-01T05:28:59;101038.06;;;15.36;100.00
55860;BME280;41780;52.148;4.408;2022-07-01T05:31:29;101039.84;;;15.54;100.00
55860;BME280;41780;52.148;4.408;2022-07-01T05:34:01;101038.31;;;15.62;100.00
55860;BME280;41780;52.148;4.408;2022-07-01T05:36:27;101059.69;;;15.70;100.00
55860;BME280;41780;52.148;4.408;2022-07-01T05:38:52;101054.78;;;15.81;100.00
55860;BME280;41780;52.148;4.408;2022-07-01T05:41:17;101048.00;;;15.73;100.00
55860;BME280;41780;52.148;4.408;2022-07-01T05:43:44;101059.91;;;15.60;100.00
55860;BME280;41780;52.148;4.408;2022-07-01T05:46:09;101067.16;;;16.06;100.00
55860;BME280;41780;52.148;4.408;2022-07-01T05:48:35;101072.44;;;16.16;100.00
55860;BME280;41780;52.148;4.408;2022-07-01T05:51:00;101088.81;;;16.27;100.00
55860;BME280;41780;52.148;4.408;2022-07-01T05:53:25;101099.59;;;16.37;100.00
55860;BME280;41780;52.148;4.408;2022-07-01T05:55:51;101108.78;;;16.46;100.00
55860;BME280;41780;52.148;4.408;2022-07-01T05:58:17;101130.28;;;16.27;100.00
55860;BME280;41780;52.148;4.408;2022-07-01T06:00:43;101133.13;;;16.35;100.00
55860;BME280;41780;52.148;4.408;2022-07-01T06:03:12;101135.56;;;16.37;100.00
55860;BME280;41780;52.148;4.408;2022-07-01T06:05:38;101138.06;;;16.25;100.00
55860;BME280;41780;52.148;4.408;2022-07-01T06:08:04;101147.16;;;16.03;100.00
55860;BME280;41780;52.148;4.408;2022-07-01T06:10:31;101152.94;;;15.92;100.00
55860;BME280;41780;52.148;4.408;2022-07-01T06:12:57;101151.59;;;16.04;100.00
55860;BME280;41780;52.148;4.408;2022-07-01T06:15:22;101147.47;;;16.01;100.00
55860;BME280;41780;52.148;4.408;2022-07-01T06:17:48;101151.53;;;15.53;100.00
55860;BME280;41780;52.148;4.408;2022-07-01T06:20:15;101139.03;;;15.70;100.00
55860;BME280;41780;52.148;4.408;2022-07-01T06:22:40;101160.44;;;15.50;100.00
55860;BME280;41780;52.148;4.408;2022-07-01T06:25:06;101147.84;;;15.86;100.00
55860;BME280;41780;52.148;4.408;2022-07-01T06:27:31;101158.03;;;15.99;100.00
55860;BME280;41780;52.148;4.408;2022-07-01T06:29:57;101155.53;;;16.11;100.00
55860;BME280;41780;52.148;4.408;2022-07-01T06:32:22;101160.38;;;16.06;100.00
55860;BME280;41780;52.148;4.408;2022-07-01T06:34:47;101163.75;;;16.03;100.00
55860;BME280;41780;52.148;4.408;2022-07-01T06:37:17;101170.03;;;16.31;100.00
55860;BME280;41780;52.148;4.408;2022-07-01T06:39:45;101187.22;;;16.42;100.00
55860;BME280;41780;52.148;4.408;2022-07-01T06:42:10;101187.88;;;16.47;100.00
55860;BME280;41780;52.148;4.408;2022-07-01T06:44:37;101200.03;;;16.38;100.00
55860;BME280;41780;52.148;4.408;2022-07-01T06:47:05;101196.94;;;16.39;100.00
55860;BME280;41780;52.148;4.408;2022-07-01T06:49:30;101214.19;;;16.59;100.00
55860;BME280;41780;52.148;4.408;2022-07-01T06:51:56;101203.88;;;16.73;100.00
55860;BME280;41780;52.148;4.408;2022-07-01T06:54:21;101223.00;;;16.61;100.00
55860;BME280;41780;52.148;4.408;2022-07-01T06:56:47;101238.00;;;16.82;100.00
55860;BME280;41780;52.148;4.408;2022-07-01T06:59:12;101251.84;;;16.82;100.00
55860;BME280;41780;52.148;4.408;2022-07-01T07:01:44;101259.16;;;17.01;100.00
55860;BME280;41780;52.148;4.408;2022-07-01T07:04:09;101278.13;;;17.39;100.00
55860;BME280;41780;52.148;4.408;2022-07-01T07:06:35;101288.75;;;16.92;100.00
55860;BME280;41780;52.148;4.408;2022-07-01T07:09:00;101293.16;;;17.15;100.00
55860;BME280;41780;52.148;4.408;2022-07-01T07:11:25;101289.94;;;17.22;100.00
55860;BME280;41780;52.148;4.408;2022-07-01T07:13:52;101309.88;;;17.10;100.00
55860;BME280;41780;52.148;4.408;2022-07-01T07:16:17;101319.16;;;17.05;100.00
55860;BME280;41780;52.148;4.408;2022-07-01T07:18:46;101334.06;;;16.82;100.00
55860;BME280;41780;52.148;4.408;2022-07-01T07:21:12;101332.13;;;16.96;100.00
55860;BME280;41780;52.148;4.408;2022-07-01T07:23:37;101335.22;;;17.40;100.00
55860;BME280;41780;52.148;4.408;2022-07-01T07:26:03;101339.81;;;17.22;100.00
55860;BME280;41780;52.148;4.408;2022-07-01T07:28:28;101340.28;;;17.01;100.00
55860;BME280;41780;52.148;4.408;2022-07-01T07:30:54;101349.06;;;17.17;100.00
55860;BME280;41780;52.148;4.408;2022-07-01T07:33:19;101353.44;;;17.41;100.00
55860;BME280;41780;52.148;4.408;2022-07-01T07:35:44;101363.22;;;17.16;100.00
55860;BME280;41780;52.148;4.408;2022-07-01T07:38:10;101366.53;;;17.49;100.00
55860;BME280;41780;52.148;4.408;2022-07-01T07:40:35;101363.16;;;17.52;100.00
55860;BME280;41780;52.148;4.408;2022-07-01T07:43:01;101368.66;;;17.97;100.00
55860;BME280;41780;52.148;4.408;2022-07-01T07:45:28;101380.00;;;17.87;100.00
55860;BME280;41780;52.148;4.408;2022-07-01T07:47:54;101386.50;;;18.14;100.00
55860;BME280;41780;52.148;4.408;2022-07-01T07:50:21;101396.28;;;17.57;100.00
55860;BME280;41780;52.148;4.408;2022-07-01T07:52:47;101419.94;;;16.96;100.00
55860;BME280;41780;52.148;4.408;2022-07-01T07:55:13;101410.78;;;16.95;100.00
55860;BME280;41780;52.148;4.408;2022-07-01T07:57:39;101396.31;;;16.98;100.00
55860;BME280;41780;52.148;4.408;2022-07-01T08:00:07;101396.34;;;16.70;100.00
55860;BME280;41780;52.148;4.408;2022-07-01T08:02:36;101402.06;;;16.74;100.00
55860;BME280;41780;52.148;4.408;2022-07-01T08:05:02;101389.72;;;17.08;100.00
55860;BME280;41780;52.148;4.408;2022-07-01T08:07:28;101397.31;;;17.61;100.00
55860;BME280;41780;52.148;4.408;2022-07-01T08:09:54;101396.97;;;18.17;100.00
55860;BME280;41780;52.148;4.408;2022-07-01T08:12:20;101407.22;;;18.74;100.00
55860;BME280;41780;52.148;4.408;2022-07-01T08:14:47;101436.00;;;18.69;100.00
55860;BME280;41780;52.148;4.408;2022-07-01T08:17:12;101441.56;;;18.69;100.00
55860;BME280;41780;52.148;4.408;2022-07-01T08:19:38;101441.41;;;18.74;100.00
55860;BME280;41780;52.148;4.408;2022-07-01T08:22:03;101448.66;;;19.02;100.00
55860;BME280;41780;52.148;4.408;2022-07-01T08:24:29;101453.03;;;18.85;100.00
55860;BME280;41780;52.148;4.408;2022-07-01T08:26:54;101449.50;;;19.20;100.00
55860;BME280;41780;52.148;4.408;2022-07-01T08:29:20;101469.91;;;18.58;100.00
55860;BME280;41780;52.148;4.408;2022-07-01T08:31:46;101468.97;;;19.28;100.00
55860;BME280;41780;52.148;4.408;2022-07-01T08:34:12;101462.75;;;19.32;100.00
55860;BME280;41780;52.148;4.408;2022-07-01T08:36:39;101467.16;;;19.59;100.00
55860;BME280;41780;52.148;4.408;2022-07-01T08:39:05;101470.34;;;20.13;100.00
55860;BME280;41780;52.148;4.408;2022-07-01T08:41:31;101470.25;;;19.83;100.00
55860;BME280;41780;52.148;4.408;2022-07-01T08:43:56;101483.16;;;19.97;100.00
55860;BME280;41780;52.148;4.408;2022-07-01T08:46:23;101494.00;;;19.37;100.00
55860;BME280;41780;52.148;4.408;2022-07-01T08:48:49;101494.91;;;18.89;100.00
55860;BME280;41780;52.148;4.408;2022-07-01T08:51:15;101488.25;;;19.95;100.00
55860;BME280;41780;52.148;4.408;2022-07-01T08:53:41;101489.16;;;20.72;100.00
55860;BME280;41780;52.148;4.408;2022-07-01T08:56:06;101501.41;;;21.31;100.00
55860;BME280;41780;52.148;4.408;2022-07-01T08:58:51;101503.09;;;21.53;100.00
55860;BME280;41780;52.148;4.408;2022-07-01T09:01:23;101513.75;;;21.00;100.00
55860;BME280;41780;52.148;4.408;2022-07-01T09:03:51;101535.50;;;19.25;100.00
55860;BME280;41780;52.148;4.408;2022-07-01T09:06:28;101540.25;;;18.76;100.00
55860;BME280;41780;52.148;4.408;2022-07-01T09:08:53;101537.09;;;19.00;100.00
55860;BME280;41780;52.148;4.408;2022-07-01T09:11:20;101544.81;;;18.40;100.00
55860;BME280;41780;52.148;4.408;2022-07-01T09:14:04;101535.31;;;18.32;100.00
55860;BME280;41780;52.148;4.408;2022-07-01T09:16:43;101538.19;;;18.50;100.00
55860;BME280;41780;52.148;4.408;2022-07-01T09:19:10;101541.19;;;18.08;100.00
55860;BME280;41780;52.148;4.408;2022-07-01T09:21:35;101543.16;;;18.70;100.00
55860;BME280;41780;52.148;4.408;2022-07-01T09:24:21;101555.22;;;18.34;100.00
55860;BME280;41780;52.148;4.408;2022-07-01T09:26:59;101550.00;;;18.64;100.00
55860;BME280;41780;52.148;4.408;2022-07-01T09:29:30;101552.06;;;19.65;100.00
55860;BME280;41780;52.148;4.408;2022-07-01T09:31:57;101559.63;;;20.17;100.00
55860;BME280;41780;52.148;4.408;2022-07-01T09:34:23;101720.09;;;20.39;100.00
55860;BME280;41780;52.148;4.408;2022-07-01T09:36:55;101724.78;;;19.06;100.00
55860;BME280;41780;52.148;4.408;2022-07-01T09:39:23;101730.84;;;19.97;100.00
55860;BME280;41780;52.148;4.408;2022-07-01T09:41:49;101732.16;;;19.10;100.00
55860;BME280;41780;52.148;4.408;2022-07-01T09:44:14;101732.22;;;18.15;100.00
55860;BME280;41780;52.148;4.408;2022-07-01T09:46:56;101720.13;;;18.11;100.00
55860;BME280;41780;52.148;4.408;2022-07-01T09:49:23;101717.66;;;17.95;100.00
55860;BME280;41780;52.148;4.408;2022-07-01T09:51:50;101701.22;;;17.85;100.00
55860;BME280;41780;52.148;4.408;2022-07-01T09:54:17;101687.28;;;17.90;100.00
55860;BME280;41780;52.148;4.408;2022-07-01T09:56:42;101704.72;;;17.77;100.00
55860;BME280;41780;52.148;4.408;2022-07-01T09:59:08;101695.09;;;18.70;100.00
55860;BME280;41780;52.148;4.408;2022-07-01T10:01:33;101702.50;;;19.37;100.00
55860;BME280;41780;52.148;4.408;2022-07-01T10:04:00;101712.81;;;19.77;100.00
55860;BME280;41780;52.148;4.408;2022-07-01T10:06:56;101718.63;;;19.58;100.00
55860;BME280;41780;52.148;4.408;2022-07-01T10:09:42;101728.91;;;19.97;100.00
55860;BME280;41780;52.148;4.408;2022-07-01T10:14:48;101745.66;;;20.76;100.00
55860;BME280;41780;52.148;4.408;2022-07-01T10:17:42;101737.31;;;20.76;100.00
55860;BME280;41780;52.148;4.408;2022-07-01T10:20:15;101750.09;;;20.68;100.00
55860;BME280;41780;52.148;4.408;2022-07-01T10:22:42;101734.69;;;21.36;100.00
55860;BME280;41780;52.148;4.408;2022-07-01T10:25:40;101745.16;;;20.74;100.00
55860;BME280;41780;52.148;4.408;2022-07-01T10:28:23;101744.25;;;21.17;100.00
55860;BME280;41780;52.148;4.408;2022-07-01T10:30:49;101756.59;;;20.11;100.00
55860;BME280;41780;52.148;4.408;2022-07-01T10:36:09;101761.19;;;18.96;100.00
55860;BME280;41780;52.148;4.408;2022-07-01T10:38:36;101757.06;;;18.93;100.00
55860;BME280;41780;52.148;4.408;2022-07-01T10:41:25;101758.31;;;18.87;100.00
55860;BME280;41780;52.148;4.408;2022-07-01T10:43:50;101751.66;;;19.19;100.00
55860;BME280;41780;52.148;4.408;2022-07-01T10:46:44;101755.53;;;18.87;100.00
55860;BME280;41780;52.148;4.408;2022-07-01T10:51:49;101761.41;;;19.08;100.00
55860;BME280;41780;52.148;4.408;2022-07-01T10:59:49;101784.16;;;18.51;100.00
55860;BME280;41780;52.148;4.408;2022-07-01T11:02:21;101747.44;;;18.54;100.00
55860;BME280;41780;52.148;4.408;2022-07-01T11:04:47;101731.78;;;18.22;100.00
55860;BME280;41780;52.148;4.408;2022-07-01T11:07:13;101714.19;;;18.40;100.00
55860;BME280;41780;52.148;4.408;2022-07-01T11:09:39;101724.88;;;17.96;100.00
55860;BME280;41780;52.148;4.408;2022-07-01T11:12:05;101691.66;;;18.42;100.00
55860;BME280;41780;52.148;4.408;2022-07-01T11:14:39;101690.16;;;17.99;100.00
55860;BME280;41780;52.148;4.408;2022-07-01T11:17:06;101679.81;;;19.44;100.00
55860;BME280;41780;52.148;4.408;2022-07-01T11:19:32;101691.59;;;20.33;100.00
55860;BME280;41780;52.148;4.408;2022-07-01T11:21:57;101745.66;;;20.50;100.00
55860;BME280;41780;52.148;4.408;2022-07-01T11:24:23;101765.28;;;20.27;100.00
55860;BME280;41780;52.148;4.408;2022-07-01T11:26:49;101778.41;;;20.62;100.00
55860;BME280;41780;52.148;4.408;2022-07-01T11:29:24;101790.00;;;21.16;100.00
55860;BME280;41780;52.148;4.408;2022-07-01T11:31:50;101802.81;;;21.17;100.00
55860;BME280;41780;52.148;4.408;2022-07-01T11:34:16;101829.59;;;20.83;100.00
55860;BME280;41780;52.148;4.408;2022-07-01T11:36:45;101832.00;;;21.28;100.00
55860;BME280;41780;52.148;4.408;2022-07-01T11:39:30;101821.84;;;20.89;100.00
55860;BME280;41780;52.148;4.408;2022-07-01T11:42:06;101805.28;;;21.10;100.00
55860;BME280;41780;52.148;4.408;2022-07-01T11:44:39;101813.44;;;20.36;100.00
55860;BME280;41780;52.148;4.408;2022-07-01T11:47:06;101825.34;;;19.71;100.00
55860;BME280;41780;52.148;4.408;2022-07-01T11:49:33;101812.69;;;19.56;100.00
55860;BME280;41780;52.148;4.408;2022-07-01T11:52:05;101808.28;;;19.55;100.00
55860;BME280;41780;52.148;4.408;2022-07-01T11:54:45;101807.25;;;20.57;100.00
55860;BME280;41780;52.148;4.408;2022-07-01T11:57:16;101825.06;;;22.50;100.00
55860;BME280;41780;52.148;4.408;2022-07-01T11:59:43;101826.88;;;22.25;100.00
55860;BME280;41780;52.148;4.408;2022-07-01T12:02:11;101860.41;;;22.16;100.00
55860;BME280;41780;52.148;4.408;2022-07-01T12:04:38;101855.63;;;21.05;100.00
55860;BME280;41780;52.148;4.408;2022-07-01T12:07:05;101864.09;;;20.47;100.00
55860;BME280;41780;52.148;4.408;2022-07-01T12:09:31;101867.44;;;20.93;100.00
55860;BME280;41780;52.148;4.408;2022-07-01T12:11:57;101881.50;;;21.66;100.00
55860;BME280;41780;52.148;4.408;2022-07-01T12:14:30;101891.41;;;21.20;100.00
55860;BME280;41780;52.148;4.408;2022-07-01T12:16:58;101879.53;;;20.53;100.00
55860;BME280;41780;52.148;4.408;2022-07-01T12:21:56;101906.19;;;21.94;100.00
55860;BME280;41780;52.148;4.408;2022-07-01T12:24:25;101903.03;;;22.05;100.00
55860;BME280;41780;52.148;4.408;2022-07-01T12:29:20;101890.50;;;22.11;100.00
55860;BME280;41780;52.148;4.408;2022-07-01T12:32:00;101865.97;;;20.87;100.00
55860;BME280;41780;52.148;4.408;2022-07-01T12:34:42;101891.97;;;22.17;100.00
55860;BME280;41780;52.148;4.408;2022-07-01T12:37:13;101882.31;;;21.50;100.00
55860;BME280;41780;52.148;4.408;2022-07-01T12:39:49;101894.25;;;21.67;100.00
55860;BME280;41780;52.148;4.408;2022-07-01T12:42:29;101913.31;;;23.02;100.00
55860;BME280;41780;52.148;4.408;2022-07-01T12:44:58;101894.00;;;22.88;100.00
55860;BME280;41780;52.148;4.408;2022-07-01T12:53:03;101909.59;;;24.35;100.00
55860;BME280;41780;52.148;4.408;2022-07-01T12:58:09;101885.81;;;22.62;100.00
55860;BME280;41780;52.148;4.408;2022-07-01T13:00:35;101887.91;;;22.65;100.00
55860;BME280;41780;52.148;4.408;2022-07-01T13:03:03;101877.88;;;22.43;100.00
55860;BME280;41780;52.148;4.408;2022-07-01T13:05:30;101896.91;;;22.71;100.00
55860;BME280;41780;52.148;4.408;2022-07-01T13:07:56;101896.31;;;22.86;100.00
55860;BME280;41780;52.148;4.408;2022-07-01T13:10:21;101896.66;;;22.85;100.00